Time;durP1;ratioP1;P1;durP2;ratioP2;P2;SDS_P1;SDS_P2;PMS_P1;PMS_P2;Temp;Humidity;BMP_temperature;BMP_pressure;BME280_temperature;BME280_humidity;BME280_pressure;Samples;Min_cycle;Max_cycle;Signal;HPM_P1;HPM_P2
2022/01/27 00:01:31;;;;;;;8.85;2.92;;;7.50;99.90;;;;;;4936880;29;20034;-93
2022/01/27 00:04:15;;;;;;;6.95;2.00;;;7.40;99.90;;;;;;4936799;29;20039;-91
2022/01/27 00:06:42;;;;;;;7.47;2.40;;;7.50;99.90;;;;;;4935491;29;20118;-93
2022/01/27 00:09:43;;;;;;;9.25;2.97;;;7.40;99.90;;;;;;4928308;29;20070;-94
2022/01/27 00:11:56;;;;;;;8.77;3.22;;;7.50;99.90;;;;;;4935244;29;20034;-92
2022/01/27 00:14:22;;;;;;;5.65;2.25;;;7.50;99.90;;;;;;4918553;29;20063;-94
2022/01/27 00:16:57;;;;;;;10.20;2.25;;;7.50;99.90;;;;;;4978768;28;20117;-94
2022/01/27 00:19:23;;;;;;;6.68;1.88;;;7.50;99.90;;;;;;4991328;28;20026;-92
2022/01/27 00:21:49;;;;;;;4.78;2.20;;;7.50;99.90;;;;;;5013789;28;20030;-93
2022/01/27 00:24:15;;;;;;;4.78;2.35;;;7.50;99.90;;;;;;4998363;28;20033;-94
2022/01/27 00:26:42;;;;;;;6.63;2.78;;;7.50;99.90;;;;;;4998355;28;20026;-93
2022/01/27 00:29:07;;;;;;;8.88;3.92;;;7.60;99.90;;;;;;4987905;28;20506;-91
2022/01/27 00:31:33;;;;;;;10.75;2.50;;;7.60;99.90;;;;;;4982876;28;20038;-91
2022/01/27 00:34:03;;;;;;;9.45;3.05;;;7.50;99.90;;;;;;4978493;28;20034;-91
2022/01/27 00:36:32;;;;;;;5.40;2.10;;;7.50;99.90;;;;;;4978621;28;20488;-91
2022/01/27 00:39:01;;;;;;;8.35;2.60;;;7.50;99.90;;;;;;4995409;28;20085;-92
2022/01/27 00:41:27;;;;;;;6.40;2.13;;;7.50;99.90;;;;;;4978560;28;20026;-93
2022/01/27 00:43:52;;;;;;;8.00;3.80;;;7.50;99.90;;;;;;4978200;28;20469;-90
2022/01/27 00:46:19;;;;;;;5.90;2.80;;;7.50;99.90;;;;;;4978896;28;20041;-92
2022/01/27 00:48:47;;;;;;;6.18;1.80;;;7.50;99.90;;;;;;4978803;28;20027;-94
2022/01/27 00:51:20;;;;;;;10.43;2.17;;;7.60;99.90;;;;;;4978289;28;20029;-94
2022/01/27 00:53:51;;;;;;;3.97;2.28;;;7.60;99.90;;;;;;4978207;28;20034;-93
2022/01/27 00:56:27;;;;;;;5.07;1.90;;;7.50;99.90;;;;;;4977938;28;20027;-94
2022/01/27 01:01:22;;;;;;;5.35;1.70;;;7.60;99.90;;;;;;4995074;28;20030;-93
2022/01/27 01:03:50;;;;;;;6.57;3.70;;;7.60;99.90;;;;;;4977843;28;20021;-93
2022/01/27 01:06:33;;;;;;;9.95;3.00;;;7.60;99.90;;;;;;4977750;28;20053;-92
2022/01/27 01:34:44;;;;;;;7.88;2.08;;;7.70;99.90;;;;;;5000212;28;20081;-93
2022/01/27 01:37:10;;;;;;;3.95;1.92;;;7.70;99.90;;;;;;5000973;28;20030;-94
2022/01/27 01:39:37;;;;;;;5.25;1.90;;;7.80;99.90;;;;;;4982325;28;20495;-93
2022/01/27 01:42:08;;;;;;;3.92;1.48;;;7.70;99.90;;;;;;4981736;28;20045;-94
2022/01/27 01:44:34;;;;;;;2.10;1.40;;;7.80;99.90;;;;;;4981828;28;20031;-93
2022/01/27 01:47:01;;;;;;;4.55;1.58;;;7.70;99.90;;;;;;4994838;28;20022;-94
2022/01/27 01:49:27;;;;;;;4.25;1.40;;;7.80;99.90;;;;;;4991116;28;20025;-93
2022/01/27 01:51:54;;;;;;;3.63;1.45;;;7.80;99.90;;;;;;4994242;28;20033;-94
2022/01/27 01:54:20;;;;;;;4.88;1.85;;;7.80;99.90;;;;;;4984487;28;20037;-94
2022/01/27 01:56:46;;;;;;;2.40;1.58;;;7.80;99.90;;;;;;4982446;28;20023;-93
2022/01/27 01:59:12;;;;;;;2.22;1.42;;;7.80;99.90;;;;;;4983651;28;20030;-94
2022/01/27 02:01:41;;;;;;;4.22;1.50;;;7.80;99.90;;;;;;4990668;28;20030;-96
2022/01/27 02:04:09;;;;;;;2.13;1.30;;;7.80;99.90;;;;;;4987978;28;20045;-93
2022/01/27 02:18:00;;;;;;;2.25;1.17;;;7.80;99.90;;;;;;5008038;28;20037;-93
2022/01/27 02:20:26;;;;;;;4.80;2.38;;;7.80;99.90;;;;;;4986899;28;20040;-92
2022/01/27 02:22:52;;;;;;;5.13;1.20;;;7.90;99.90;;;;;;4981103;28;20029;-91
2022/01/27 02:25:18;;;;;;;2.22;1.10;;;7.90;99.90;;;;;;4982295;28;20030;-94
2022/01/27 02:27:44;;;;;;;5.85;1.20;;;7.90;99.90;;;;;;4982946;28;20432;-91
2022/01/27 02:30:10;;;;;;;2.42;1.00;;;7.90;99.90;;;;;;4992527;28;20024;-91
2022/01/27 02:32:36;;;;;;;2.30;0.90;;;7.90;99.90;;;;;;5001495;28;20034;-92
2022/01/27 02:35:04;;;;;;;2.75;1.13;;;7.90;99.90;;;;;;4996025;28;20105;-92
2022/01/27 02:37:30;;;;;;;2.95;1.23;;;7.90;99.90;;;;;;4981384;28;20035;-93
2022/01/27 02:39:55;;;;;;;2.67;1.10;;;8.00;99.90;;;;;;4980851;28;20065;-94
2022/01/27 02:42:25;;;;;;;1.95;0.65;;;8.00;99.90;;;;;;4981048;28;20026;-94
2022/01/27 02:45:05;;;;;;;1.95;0.70;;;8.00;99.90;;;;;;4980341;28;20190;-93
2022/01/27 02:47:32;;;;;;;3.78;1.27;;;8.00;99.90;;;;;;4980697;28;20080;-93
2022/01/27 02:49:58;;;;;;;3.95;1.15;;;8.00;99.90;;;;;;4982363;28;20539;-90
2022/01/27 02:52:23;;;;;;;2.58;1.08;;;8.00;99.90;;;;;;4982815;28;20043;-91
2022/01/27 02:54:49;;;;;;;2.28;1.15;;;8.00;99.90;;;;;;4984489;28;20122;-92
2022/01/27 02:57:15;;;;;;;1.95;1.50;;;8.00;99.90;;;;;;4980071;28;20491;-91
2022/01/27 02:59:41;;;;;;;3.65;1.63;;;8.00;99.90;;;;;;4980209;28;20026;-92
2022/01/27 03:02:07;;;;;;;2.95;1.70;;;8.00;99.90;;;;;;4980128;28;20117;-92
2022/01/27 03:04:34;;;;;;;4.82;1.98;;;8.00;99.90;;;;;;4980376;28;20026;-93
2022/01/27 03:07:04;;;;;;;4.00;2.40;;;8.00;99.90;;;;;;4979769;28;20058;-93
2022/01/27 03:09:31;;;;;;;2.72;1.85;;;8.00;99.90;;;;;;4980004;28;20476;-92
2022/01/27 03:11:59;;;;;;;3.65;2.13;;;8.00;99.90;;;;;;4980053;28;20109;-91
2022/01/27 03:14:26;;;;;;;5.60;2.20;;;8.00;99.90;;;;;;4979929;28;20061;-91
2022/01/27 03:16:57;;;;;;;5.03;2.25;;;8.00;99.90;;;;;;4979945;28;20022;-92
2022/01/27 03:19:23;;;;;;;2.72;1.88;;;8.00;99.90;;;;;;4980035;28;20122;-92
2022/01/27 03:21:50;;;;;;;4.75;2.20;;;8.00;99.90;;;;;;4979493;28;20033;-91
2022/01/27 03:24:16;;;;;;;3.38;2.03;;;8.00;99.90;;;;;;4979637;28;20077;-92
2022/01/27 03:26:43;;;;;;;3.60;2.10;;;8.10;99.90;;;;;;4979681;28;20020;-91
2022/01/27 03:29:08;;;;;;;3.45;2.22;;;8.10;99.90;;;;;;4979560;28;20023;-91
2022/01/27 03:31:34;;;;;;;4.95;3.10;;;8.10;99.90;;;;;;4979558;28;20022;-92
2022/01/27 03:34:00;;;;;;;10.27;3.25;;;8.10;99.90;;;;;;4979349;28;20046;-92
2022/01/27 03:36:26;;;;;;;6.10;3.40;;;8.20;99.90;;;;;;4978595;28;20050;-91
2022/01/27 03:38:52;;;;;;;8.40;4.63;;;8.20;99.90;;;;;;4978961;28;20031;-92
2022/01/27 03:41:20;;;;;;;10.23;7.03;;;8.20;99.90;;;;;;4978818;28;20065;-93
2022/01/27 03:43:47;;;;;;;7.45;5.95;;;8.30;99.90;;;;;;4978798;28;20026;-92
2022/01/27 03:46:13;;;;;;;5.82;4.68;;;8.40;99.90;;;;;;4979201;28;20029;-92
2022/01/27 03:48:39;;;;;;;8.90;5.72;;;8.50;99.90;;;;;;4978871;28;20030;-91
2022/01/27 03:51:05;;;;;;;10.13;6.05;;;8.50;99.90;;;;;;4978609;28;20026;-91
2022/01/27 03:53:31;;;;;;;7.05;4.95;;;8.50;99.90;;;;;;4978654;28;20141;-93
2022/01/27 03:55:57;;;;;;;6.38;5.40;;;8.50;99.90;;;;;;4979123;28;20476;-94
2022/01/27 03:58:22;;;;;;;6.22;5.63;;;8.60;99.90;;;;;;4978542;28;20032;-93
2022/01/27 04:00:48;;;;;;;5.40;3.70;;;8.60;99.90;;;;;;4978741;28;20030;-91
2022/01/27 04:03:16;;;;;;;5.60;5.10;;;8.60;99.90;;;;;;4978499;28;20030;-93
2022/01/27 04:05:49;;;;;;;7.15;5.47;;;8.60;99.90;;;;;;4978621;28;20030;-93
2022/01/27 04:08:15;;;;;;;7.07;4.25;;;8.70;99.90;;;;;;4978599;28;20038;-92
2022/01/27 04:10:42;;;;;;;6.75;4.70;;;8.70;99.90;;;;;;4978147;28;20488;-93
2022/01/27 04:13:08;;;;;;;7.57;4.68;;;8.70;99.90;;;;;;4978097;28;20082;-93
2022/01/27 04:15:36;;;;;;;4.57;4.18;;;8.80;99.90;;;;;;4978850;28;20025;-92
2022/01/27 04:18:02;;;;;;;4.80;4.30;;;8.80;99.90;;;;;;4978761;28;20061;-91
2022/01/27 04:20:28;;;;;;;4.43;4.05;;;8.80;99.90;;;;;;4977925;28;20034;-91
2022/01/27 04:22:53;;;;;;;5.18;3.25;;;8.80;99.90;;;;;;4978137;28;20034;-90
2022/01/27 04:25:19;;;;;;;2.70;2.17;;;8.90;99.90;;;;;;4978127;28;20022;-93
2022/01/27 04:27:50;;;;;;;3.80;2.83;;;8.90;99.90;;;;;;4978398;28;20038;-91
2022/01/27 04:30:18;;;;;;;3.45;2.90;;;8.90;99.90;;;;;;4978456;28;20026;-91
2022/01/27 04:32:52;;;;;;;4.35;2.65;;;8.90;99.90;;;;;;4978761;28;20161;-91
2022/01/27 04:35:19;;;;;;;3.50;1.65;;;8.90;99.90;;;;;;4982013;28;20022;-90
2022/01/27 04:38:36;;;;;;;4.78;2.28;;;8.90;99.90;;;;;;4979795;28;20065;-91
2022/01/27 04:40:54;;;;;;;4.90;1.85;;;9.00;99.90;;;;;;4992340;28;20460;-93
2022/01/27 04:43:33;;;;;;;1.75;1.45;;;9.00;99.90;;;;;;4978406;28;20121;-90
2022/01/27 04:48:34;;;;;;;2.42;1.55;;;9.10;99.90;;;;;;4997184;28;20030;-93
2022/01/27 04:51:06;;;;;;;2.33;1.50;;;9.10;99.90;;;;;;4984110;28;20077;-93
2022/01/27 04:53:45;;;;;;;2.42;1.80;;;9.10;99.90;;;;;;4991063;28;20586;-90
2022/01/27 04:56:13;;;;;;;1.85;1.60;;;9.10;99.90;;;;;;4997335;28;20094;-91
2022/01/27 04:58:42;;;;;;;2.78;2.03;;;9.10;99.90;;;;;;4989196;28;20054;-89
2022/01/27 05:01:08;;;;;;;2.03;1.83;;;9.10;99.90;;;;;;4979796;28;20121;-90
2022/01/27 05:03:40;;;;;;;4.38;2.60;;;9.10;99.90;;;;;;4979537;28;20560;-92
2022/01/27 05:06:06;;;;;;;5.47;2.92;;;9.10;99.90;;;;;;4978472;28;20107;-91
2022/01/27 05:08:32;;;;;;;5.18;2.90;;;9.10;99.90;;;;;;4979368;28;20034;-92
2022/01/27 05:11:04;;;;;;;5.55;3.50;;;9.10;99.90;;;;;;4978130;28;20034;-91
2022/01/27 05:13:37;;;;;;;4.80;3.70;;;9.10;99.90;;;;;;4981357;28;20039;-91
2022/01/27 05:16:03;;;;;;;3.35;2.55;;;9.10;99.90;;;;;;4987155;28;20034;-91
2022/01/27 05:18:29;;;;;;;8.27;4.20;;;9.10;99.90;;;;;;4984894;28;20080;-92
2022/01/27 05:20:55;;;;;;;6.85;4.18;;;9.10;99.90;;;;;;4977925;28;20488;-90
2022/01/27 05:23:20;;;;;;;7.80;3.90;;;9.20;99.90;;;;;;4977687;28;20328;-92
2022/01/27 05:25:47;;;;;;;5.63;3.92;;;9.10;99.90;;;;;;4995259;28;20026;-91
2022/01/27 05:28:13;;;;;;;5.07;3.85;;;9.20;99.90;;;;;;4977727;28;20085;-91
2022/01/27 05:30:38;;;;;;;7.95;4.07;;;9.10;99.90;;;;;;4977885;28;20030;-90
2022/01/27 05:33:04;;;;;;;4.05;3.05;;;9.20;99.90;;;;;;4977141;28;20463;-93
2022/01/27 05:35:30;;;;;;;2.20;1.92;;;9.20;99.90;;;;;;4978195;28;20018;-92
2022/01/27 05:37:56;;;;;;;1.60;1.50;;;9.20;99.90;;;;;;4978221;28;20137;-93
2022/01/27 05:40:22;;;;;;;2.83;2.25;;;9.10;99.90;;;;;;4978245;28;20081;-92
2022/01/27 05:42:48;;;;;;;3.58;1.90;;;9.10;99.90;;;;;;4978728;28;20026;-94
2022/01/27 05:45:14;;;;;;;5.38;1.73;;;9.20;99.90;;;;;;4977969;28;20023;-91
2022/01/27 05:47:39;;;;;;;1.75;1.65;;;9.20;99.90;;;;;;4977788;28;20026;-91
2022/01/27 05:50:06;;;;;;;4.22;1.80;;;9.10;99.90;;;;;;4977942;28;20034;-92
2022/01/27 05:52:32;;;;;;;3.15;2.00;;;9.20;99.90;;;;;;4978060;28;20070;-93
2022/01/27 05:55:00;;;;;;;2.65;2.10;;;9.20;99.90;;;;;;4978246;28;20058;-90
2022/01/27 05:57:25;;;;;;;3.47;1.90;;;9.20;99.90;;;;;;4977799;28;20034;-92
2022/01/27 05:59:51;;;;;;;5.70;1.95;;;9.20;99.90;;;;;;4981484;28;20022;-91
2022/01/27 06:02:17;;;;;;;7.13;2.92;;;9.20;99.90;;;;;;4981268;28;20023;-91
2022/01/27 06:04:43;;;;;;;7.40;3.25;;;9.20;99.90;;;;;;4981302;28;20065;-92
2022/01/27 06:07:08;;;;;;;4.68;2.38;;;9.20;99.90;;;;;;4981318;28;20030;-91
2022/01/27 06:09:34;;;;;;;5.80;2.67;;;9.20;99.90;;;;;;4981162;28;20081;-91
2022/01/27 06:12:00;;;;;;;9.75;3.15;;;9.20;99.90;;;;;;4981543;28;20033;-91
2022/01/27 06:14:25;;;;;;;7.57;2.75;;;9.20;99.90;;;;;;4981087;28;20147;-91
2022/01/27 06:16:51;;;;;;;7.78;3.03;;;9.30;99.90;;;;;;4982534;28;20050;-91
2022/01/27 06:19:17;;;;;;;12.02;2.95;;;9.30;99.90;;;;;;4981219;28;20094;-91
2022/01/27 06:21:44;;;;;;;5.07;2.72;;;9.30;99.90;;;;;;4980076;28;20468;-92
2022/01/27 06:24:10;;;;;;;5.32;2.60;;;9.30;99.90;;;;;;4980291;28;20041;-93
2022/01/27 06:26:35;;;;;;;5.53;3.00;;;9.30;99.90;;;;;;4980691;28;20023;-92
2022/01/27 06:29:01;;;;;;;11.98;3.20;;;9.30;99.90;;;;;;4980150;28;20061;-92
2022/01/27 06:31:27;;;;;;;8.32;2.58;;;9.30;99.90;;;;;;4980050;28;20026;-93
2022/01/27 06:33:52;;;;;;;8.90;2.05;;;9.20;99.90;;;;;;4980611;28;20065;-93
2022/01/27 06:36:19;;;;;;;7.80;2.67;;;9.20;99.90;;;;;;4981207;28;20384;-92
2022/01/27 06:38:45;;;;;;;5.35;1.52;;;9.20;99.90;;;;;;4980494;28;20125;-93
2022/01/27 06:41:11;;;;;;;6.57;2.50;;;9.20;99.90;;;;;;4980184;28;20158;-92
2022/01/27 06:43:37;;;;;;;5.68;1.88;;;9.20;99.90;;;;;;4980561;28;20306;-91
2022/01/27 06:46:03;;;;;;;5.45;2.13;;;9.20;99.90;;;;;;4980315;28;20114;-92
2022/01/27 06:48:28;;;;;;;9.50;2.78;;;9.20;99.90;;;;;;4980499;28;20019;-93
2022/01/27 06:50:55;;;;;;;9.23;2.47;;;9.10;99.90;;;;;;4980101;28;20238;-92
2022/01/27 06:53:22;;;;;;;7.28;2.15;;;9.10;99.90;;;;;;4980504;28;20113;-93
2022/01/27 06:55:48;;;;;;;7.45;1.92;;;9.10;99.90;;;;;;4964743;28;20030;-93
2022/01/27 06:58:14;;;;;;;9.10;1.90;;;9.10;99.90;;;;;;4980406;28;20033;-91
2022/01/27 07:00:40;;;;;;;6.18;2.03;;;9.10;99.90;;;;;;4979713;28;20022;-91
2022/01/27 07:03:06;;;;;;;6.32;1.60;;;9.10;99.90;;;;;;4980343;28;20037;-92
2022/01/27 07:05:33;;;;;;;5.72;2.03;;;9.00;99.90;;;;;;4980279;28;20026;-92
2022/01/27 07:07:59;;;;;;;5.85;1.90;;;9.00;99.90;;;;;;4980147;28;20034;-94
2022/01/27 07:10:25;;;;;;;9.27;2.15;;;9.00;99.90;;;;;;4978928;28;20031;-91
2022/01/27 07:12:51;;;;;;;7.25;1.70;;;9.00;99.90;;;;;;4985471;28;20041;-92
2022/01/27 07:15:16;;;;;;;4.60;1.10;;;8.90;99.90;;;;;;4989799;28;20034;-92
2022/01/27 07:17:42;;;;;;;11.48;1.73;;;8.90;99.90;;;;;;4987841;28;20149;-92
2022/01/27 07:20:09;;;;;;;13.50;2.00;;;8.90;99.90;;;;;;4986842;28;20025;-92
2022/01/27 07:22:35;;;;;;;7.97;1.98;;;8.90;99.90;;;;;;4991628;28;20036;-91
2022/01/27 07:25:03;;;;;;;13.88;3.90;;;8.90;99.90;;;;;;5004884;28;20045;-91
2022/01/27 07:27:31;;;;;;;10.63;2.50;;;8.90;99.90;;;;;;5002800;28;20109;-92
2022/01/27 07:29:57;;;;;;;11.05;1.90;;;8.90;99.90;;;;;;4989532;28;20019;-93
2022/01/27 07:32:23;;;;;;;9.60;2.55;;;8.80;99.90;;;;;;4992008;28;20109;-93
2022/01/27 07:34:48;;;;;;;11.38;2.67;;;8.80;99.90;;;;;;4993850;28;20057;-91
2022/01/27 07:37:14;;;;;;;11.25;1.80;;;8.80;99.90;;;;;;5002415;28;20030;-91
2022/01/27 07:39:40;;;;;;;12.52;2.08;;;8.80;99.90;;;;;;4987913;28;20084;-92
2022/01/27 07:42:06;;;;;;;17.20;2.50;;;8.80;99.90;;;;;;4985801;28;20121;-94
2022/01/27 07:44:32;;;;;;;9.95;2.90;;;8.70;99.90;;;;;;4988971;28;20061;-91
2022/01/27 07:46:57;;;;;;;8.80;1.95;;;8.70;99.90;;;;;;4993079;28;20388;-91
2022/01/27 07:49:23;;;;;;;14.40;1.77;;;8.70;99.90;;;;;;5002317;28;20080;-91
2022/01/27 07:51:49;;;;;;;9.95;1.75;;;8.60;99.90;;;;;;5018876;28;20029;-91
2022/01/27 07:54:14;;;;;;;9.32;1.70;;;8.60;99.90;;;;;;5018260;28;20061;-91
2022/01/27 07:56:40;;;;;;;8.07;1.58;;;8.60;99.90;;;;;;5003755;28;20161;-93
2022/01/27 07:59:06;;;;;;;11.52;1.73;;;8.50;99.90;;;;;;5016824;28;20080;-92
2022/01/27 08:01:32;;;;;;;13.18;2.13;;;8.50;99.90;;;;;;4998305;28;20069;-93
2022/01/27 08:03:57;;;;;;;11.02;1.73;;;8.50;99.90;;;;;;4994005;28;20026;-93
2022/01/27 08:06:23;;;;;;;10.73;1.60;;;8.50;99.90;;;;;;4989030;28;20053;-93
2022/01/27 08:08:50;;;;;;;5.72;1.30;;;8.40;99.90;;;;;;4988917;28;20031;-92
2022/01/27 08:11:17;;;;;;;10.70;1.63;;;8.40;99.90;;;;;;4990115;28;20026;-92
2022/01/27 08:13:42;;;;;;;8.60;2.15;;;8.40;99.90;;;;;;4992733;28;20041;-91
2022/01/27 08:16:08;;;;;;;10.80;2.00;;;8.40;99.90;;;;;;4990716;28;20023;-92
2022/01/27 08:18:34;;;;;;;6.40;1.35;;;8.30;99.90;;;;;;4979123;28;20388;-93
2022/01/27 08:20:59;;;;;;;8.52;1.75;;;8.30;99.90;;;;;;4978639;28;20392;-92
2022/01/27 08:23:25;;;;;;;13.55;1.60;;;8.30;99.90;;;;;;4978962;28;20063;-90
2022/01/27 08:26:01;;;;;;;7.65;1.52;;;8.30;99.90;;;;;;4979293;28;20022;-91
2022/01/27 08:28:33;;;;;;;11.95;1.73;;;8.30;99.90;;;;;;4979835;28;20030;-90
2022/01/27 08:30:59;;;;;;;9.10;1.50;;;8.20;99.90;;;;;;4984038;28;20037;-91
2022/01/27 08:33:29;;;;;;;9.43;1.50;;;8.20;99.90;;;;;;4985934;28;20129;-90
2022/01/27 08:35:55;;;;;;;10.52;1.98;;;8.20;99.90;;;;;;4996159;28;20492;-93
2022/01/27 08:38:20;;;;;;;8.30;1.40;;;8.20;99.90;;;;;;4993323;28;20029;-92
2022/01/27 08:40:46;;;;;;;9.38;1.90;;;8.20;99.90;;;;;;4983990;28;20053;-92
2022/01/27 08:43:12;;;;;;;10.77;1.83;;;8.10;99.90;;;;;;4991938;28;20028;-91
2022/01/27 08:45:39;;;;;;;12.98;1.27;;;8.10;99.90;;;;;;4989195;28;20052;-91
2022/01/27 08:48:10;;;;;;;7.60;1.08;;;8.10;99.90;;;;;;4988766;28;20053;-92
2022/01/27 08:50:36;;;;;;;7.20;1.25;;;8.10;99.90;;;;;;4989717;28;20022;-93
2022/01/27 08:53:02;;;;;;;9.60;2.13;;;8.10;99.90;;;;;;4987299;28;20357;-92
2022/01/27 08:55:28;;;;;;;8.65;1.45;;;8.10;99.90;;;;;;5001512;28;20516;-93
2022/01/27 08:57:54;;;;;;;10.02;1.73;;;8.10;99.90;;;;;;4986626;28;20463;-92
2022/01/27 09:00:21;;;;;;;14.32;1.73;;;8.10;99.90;;;;;;4983801;28;20053;-92
2022/01/27 09:02:47;;;;;;;10.20;1.75;;;8.10;99.90;;;;;;4980643;28;20026;-91
2022/01/27 09:05:13;;;;;;;9.35;1.42;;;8.00;99.90;;;;;;4977690;28;20161;-93
2022/01/27 09:07:39;;;;;;;8.23;1.52;;;8.00;99.90;;;;;;4977947;28;20034;-92
2022/01/27 09:10:06;;;;;;;7.72;1.73;;;8.10;99.90;;;;;;4977891;28;20042;-92
2022/01/27 09:12:32;;;;;;;10.68;2.05;;;8.10;99.90;;;;;;4977997;28;20480;-93
2022/01/27 09:14:59;;;;;;;6.03;1.48;;;8.10;99.90;;;;;;4978133;28;20034;-93
2022/01/27 09:17:26;;;;;;;9.23;1.52;;;8.10;99.90;;;;;;4978078;28;20026;-94
2022/01/27 09:19:53;;;;;;;14.68;1.98;;;8.10;99.90;;;;;;4978379;28;20094;-92
2022/01/27 09:22:19;;;;;;;13.35;1.75;;;8.10;99.90;;;;;;4977943;28;20121;-92
2022/01/27 09:25:04;;;;;;;8.75;1.80;;;8.10;99.90;;;;;;4978792;28;20471;-92
2022/01/27 09:27:30;;;;;;;4.82;1.25;;;8.10;99.90;;;;;;4977984;28;20085;-92
2022/01/27 09:29:56;;;;;;;6.28;1.40;;;8.10;99.90;;;;;;4977920;28;20036;-93
2022/01/27 09:32:24;;;;;;;7.60;1.40;;;8.10;99.90;;;;;;4977673;28;20117;-93
2022/01/27 09:34:50;;;;;;;10.32;1.42;;;8.10;99.90;;;;;;4981392;28;20031;-93
2022/01/27 09:37:16;;;;;;;8.40;1.30;;;8.20;99.90;;;;;;4981242;28;20018;-92
2022/01/27 09:39:43;;;;;;;9.80;1.30;;;8.20;99.90;;;;;;4983913;28;20076;-93
2022/01/27 09:42:09;;;;;;;10.63;1.40;;;8.20;99.90;;;;;;4982588;28;20046;-94
2022/01/27 09:44:37;;;;;;;15.32;1.75;;;8.20;99.90;;;;;;4981221;28;20030;-92
2022/01/27 09:47:13;;;;;;;11.35;1.60;;;8.20;99.90;;;;;;4981343;28;20034;-92
2022/01/27 09:49:50;;;;;;;9.80;1.23;;;8.20;99.90;;;;;;4983996;28;20030;-92
2022/01/27 09:52:17;;;;;;;10.27;1.95;;;8.20;99.90;;;;;;5001962;28;20022;-92
2022/01/27 09:54:45;;;;;;;12.50;1.55;;;8.20;99.90;;;;;;4998381;28;20087;-92
2022/01/27 09:57:11;;;;;;;12.30;1.42;;;8.20;99.90;;;;;;4996496;28;20054;-92
2022/01/27 09:59:37;;;;;;;12.98;1.40;;;8.20;99.90;;;;;;5001164;28;20030;-92
2022/01/27 10:02:07;;;;;;;7.13;1.35;;;8.30;99.90;;;;;;5000553;28;20028;-92
2022/01/27 10:04:57;;;;;;;12.27;1.90;;;8.30;99.90;;;;;;4994399;28;20014;-93
2022/01/27 10:07:42;;;;;;;7.60;1.50;;;8.30;99.90;;;;;;5000116;28;20117;-91
2022/01/27 10:10:13;;;;;;;4.55;1.30;;;8.30;99.90;;;;;;5000393;28;20288;-93
2022/01/27 10:12:46;;;;;;;11.25;1.45;;;8.30;99.90;;;;;;5000389;28;20048;-93
2022/01/27 10:15:17;;;;;;;11.05;1.25;;;8.30;99.90;;;;;;5000801;28;20041;-93
2022/01/27 10:18:07;;;;;;;8.63;2.60;;;8.30;99.90;;;;;;4999717;28;20537;-93
2022/01/27 10:20:34;;;;;;;11.13;1.60;;;8.30;99.90;;;;;;4999997;28;20026;-93
2022/01/27 10:23:26;;;;;;;10.60;1.60;;;8.30;99.90;;;;;;4990370;28;20031;-93
2022/01/27 10:26:07;;;;;;;5.95;1.08;;;8.30;99.90;;;;;;4987973;28;20539;-94
2022/01/27 10:31:08;;;;;;;8.02;0.93;;;8.40;99.90;;;;;;5005385;28;20026;-93
2022/01/27 10:34:03;;;;;;;7.00;0.98;;;8.40;99.90;;;;;;4990957;28;20066;-92
2022/01/27 10:36:43;;;;;;;15.45;2.22;;;8.40;99.90;;;;;;4990252;28;20030;-93
2022/01/27 10:39:10;;;;;;;10.80;2.03;;;8.40;99.90;;;;;;4988105;28;20023;-92
2022/01/27 10:41:39;;;;;;;5.03;0.95;;;8.40;99.90;;;;;;4997851;28;20487;-93
2022/01/27 10:44:17;;;;;;;4.03;0.63;;;8.40;99.90;;;;;;4995233;28;20045;-91
2022/01/27 10:47:05;;;;;;;9.80;1.38;;;8.40;99.90;;;;;;4988589;28;20021;-91
2022/01/27 10:49:35;;;;;;;8.55;1.02;;;8.40;99.90;;;;;;4997998;28;20022;-93
2022/01/27 10:52:00;;;;;;;11.77;1.10;;;8.40;99.90;;;;;;4986065;28;20022;-92
2022/01/27 10:54:37;;;;;;;8.05;1.02;;;8.40;99.90;;;;;;4986468;28;20487;-93
2022/01/27 10:57:08;;;;;;;7.38;1.30;;;8.40;99.90;;;;;;4984956;28;20044;-91
2022/01/27 10:59:34;;;;;;;8.95;1.02;;;8.40;99.90;;;;;;4979818;28;20026;-94
2022/01/27 11:02:05;;;;;;;11.02;1.30;;;8.40;99.90;;;;;;4981002;28;20040;-91
2022/01/27 11:04:34;;;;;;;8.02;1.15;;;8.40;99.90;;;;;;4983410;28;20021;-91
2022/01/27 11:07:02;;;;;;;5.70;1.10;;;8.40;99.90;;;;;;4979960;28;20041;-92
2022/01/27 11:09:37;;;;;;;12.27;1.60;;;8.40;99.90;;;;;;4979730;28;20022;-92
2022/01/27 11:12:08;;;;;;;11.38;1.70;;;8.40;99.90;;;;;;4979225;28;20031;-92
2022/01/27 11:14:35;;;;;;;11.05;1.20;;;8.40;99.90;;;;;;4979427;28;20030;-91
2022/01/27 11:17:02;;;;;;;9.18;1.25;;;8.40;99.90;;;;;;4980345;28;20121;-92
2022/01/27 11:22:07;;;;;;;6.45;0.95;;;8.40;99.90;;;;;;5009246;28;20034;-94
2022/01/27 11:27:34;;;;;;;7.57;1.02;;;8.50;99.90;;;;;;4994063;28;20034;-91
2022/01/27 11:30:11;;;;;;;5.45;0.75;;;8.60;99.90;;;;;;4981397;28;20076;-92
2022/01/27 11:32:50;;;;;;;7.55;1.33;;;8.70;99.90;;;;;;4986619;28;20469;-92
2022/01/27 11:35:21;;;;;;;2.08;0.93;;;8.90;99.90;;;;;;4994367;28;20038;-93
2022/01/27 11:37:59;;;;;;;10.10;1.27;;;9.10;99.90;;;;;;5006585;28;20097;-93
2022/01/27 11:40:41;;;;;;;4.05;0.80;;;9.20;99.90;;;;;;5000001;28;20054;-93
2022/01/27 11:43:18;;;;;;;4.80;0.80;;;9.40;99.90;;;;;;4993249;28;20037;-92
2022/01/27 11:45:47;;;;;;;7.07;1.10;;;9.60;99.90;;;;;;4991131;28;20018;-92
2022/01/27 11:48:23;;;;;;;9.95;1.70;;;9.90;99.90;;;;;;4983992;28;20058;-91
2022/01/27 11:51:13;;;;;;;9.27;1.45;;;10.30;99.90;;;;;;4978799;28;20112;-94
2022/01/27 11:53:51;;;;;;;6.82;1.00;;;10.70;99.90;;;;;;4976079;28;20035;-83
2022/01/27 11:56:30;;;;;;;6.45;1.10;;;11.10;99.90;;;;;;4992974;28;20026;-82
2022/01/27 11:59:08;;;;;;;3.35;0.93;;;11.50;99.90;;;;;;4992255;28;20491;-82
2022/01/27 12:01:35;;;;;;;8.70;1.70;;;11.80;99.90;;;;;;4992155;28;20106;-82
2022/01/27 12:04:05;;;;;;;7.85;1.60;;;11.80;99.90;;;;;;4974004;28;20047;-82
2022/01/27 12:06:34;;;;;;;6.40;1.42;;;11.80;99.90;;;;;;4974362;28;20070;-82
2022/01/27 12:09:18;;;;;;;11.05;1.60;;;11.50;99.90;;;;;;4991808;28;20042;-82
2022/01/27 12:11:50;;;;;;;8.45;1.13;;;11.20;99.90;;;;;;4975355;28;20033;-82
2022/01/27 12:14:21;;;;;;;10.48;2.78;;;10.80;99.90;;;;;;4992778;28;20046;-82
2022/01/27 12:17:07;;;;;;;9.25;1.30;;;10.60;99.90;;;;;;4975549;28;20023;-82
2022/01/27 12:20:10;;;;;;;7.28;1.33;;;10.30;99.90;;;;;;4981864;28;20114;-82
2022/01/27 12:22:52;;;;;;;10.23;1.30;;;10.10;99.90;;;;;;4975337;28;20060;-82
2022/01/27 12:25:19;;;;;;;10.07;1.13;;;9.90;99.90;;;;;;4992565;28;20110;-82
2022/01/27 12:27:54;;;;;;;9.80;1.70;;;9.90;99.90;;;;;;4992503;28;20032;-82
2022/01/27 12:30:20;;;;;;;8.30;1.75;;;9.90;99.90;;;;;;4992756;28;20106;-82
2022/01/27 12:32:46;;;;;;;10.27;1.63;;;10.00;99.90;;;;;;4974799;28;20121;-82
2022/01/27 12:35:16;;;;;;;15.05;2.40;;;10.10;99.90;;;;;;4992472;28;20050;-82
2022/01/27 12:37:50;;;;;;;7.70;1.20;;;10.20;99.90;;;;;;4993358;28;20109;-94
2022/01/27 12:40:33;;;;;;;9.43;1.83;;;10.30;99.90;;;;;;4977533;28;20143;-93
2022/01/27 12:43:02;;;;;;;11.82;1.33;;;10.20;99.90;;;;;;4976741;28;20037;-93
2022/01/27 12:45:33;;;;;;;11.95;2.00;;;10.30;99.90;;;;;;4976894;28;20034;-93
2022/01/27 12:48:08;;;;;;;10.93;1.92;;;10.60;99.90;;;;;;4976677;28;20030;-92
2022/01/27 12:50:35;;;;;;;13.77;1.70;;;10.90;99.90;;;;;;4976753;28;20035;-93
2022/01/27 12:53:08;;;;;;;14.38;1.98;;;11.00;99.90;;;;;;4977482;28;20197;-93
2022/01/27 12:55:36;;;;;;;10.68;1.38;;;11.00;99.90;;;;;;4979226;28;20081;-93
2022/01/27 12:58:05;;;;;;;10.98;1.67;;;11.00;99.90;;;;;;4986542;28;20030;-93
2022/01/27 13:00:45;;;;;;;16.10;1.60;;;11.00;99.90;;;;;;4984000;28;20022;-93
2022/01/27 13:03:11;;;;;;;12.52;2.13;;;11.20;99.90;;;;;;4977977;28;20038;-92
2022/01/27 13:05:49;;;;;;;12.88;1.70;;;11.60;99.90;;;;;;4977363;28;20139;-93
2022/01/27 13:08:22;;;;;;;7.45;1.90;;;12.00;98.60;;;;;;4975842;28;20061;-93
2022/01/27 13:10:58;;;;;;;10.07;2.05;;;12.40;97.10;;;;;;4979011;28;20023;-93
2022/01/27 13:13:28;;;;;;;12.75;2.30;;;12.60;94.70;;;;;;4996097;28;20105;-93
2022/01/27 13:16:06;;;;;;;;;;;12.50;93.40;;;;;;4977204;28;20065;-92
2022/01/27 13:18:49;;;;;;;10.65;1.35;;;12.40;93.20;;;;;;4989280;28;20278;-94
2022/01/27 13:21:30;;;;;;;11.75;1.60;;;12.40;93.00;;;;;;4997848;28;20654;-92
2022/01/27 13:24:12;;;;;;;4.53;1.80;;;12.30;92.80;;;;;;4995677;28;20038;-93
2022/01/27 13:26:37;;;;;;;8.40;1.83;;;12.40;92.80;;;;;;4995961;28;20061;-91
2022/01/27 13:29:03;;;;;;;7.13;1.60;;;12.60;92.80;;;;;;4995324;28;20056;-93
2022/01/27 13:31:34;;;;;;;5.72;1.60;;;13.00;92.70;;;;;;4996104;28;20093;-95
2022/01/27 13:34:04;;;;;;;11.40;1.95;;;13.60;92.30;;;;;;5001371;28;20040;-94
2022/01/27 13:36:35;;;;;;;14.00;1.77;;;14.00;91.00;;;;;;5007574;28;20026;-94
2022/01/27 13:41:43;;;;;;;8.70;1.58;;;14.30;88.40;;;;;;5014399;28;20099;-94
2022/01/27 13:44:17;;;;;;;9.93;1.50;;;14.30;86.90;;;;;;4995896;28;20037;-93
2022/01/27 13:46:57;;;;;;;7.55;1.40;;;14.20;85.30;;;;;;4995748;28;20026;-94
2022/01/27 13:49:27;;;;;;;9.10;1.38;;;13.90;84.90;;;;;;4998589;28;20030;-94
2022/01/27 13:52:11;;;;;;;9.98;1.65;;;13.60;84.90;;;;;;4993145;28;20383;-94
2022/01/27 13:54:41;;;;;;;7.88;1.52;;;13.40;86.20;;;;;;4996500;28;20041;-94
2022/01/27 13:57:30;;;;;;;6.10;1.10;;;13.60;87.10;;;;;;4982713;28;20117;-95